Terminal Aerodrome Forecast
Issued by NWS Des Moines, IA

Home | Current Version | Previous Version | Text Only | Print | Product List | Glossary On
Versions: 1 2 3 4 5 6 7 8 9 10 11 12 13 14 15 16 17 18 19 20 21 22 23 24 25 26 27 28
000
FTUS43 KDMX 200524
TAFALO
TAF
KALO 200524Z 2006/2106 20012G17KT P6SM SCT011
     FM200700 22013KT P6SM VCTS SCT011CB BKN040 BKN120
      TEMPO 2007/2009 29015G35KT 2SM +TSRA OVC011CB
     FM200900 24008KT P6SM BKN050 BKN100
     FM201600 29012G18KT P6SM SCT050
     FM210000 29008KT P6SM SKC=

USA.gov is the U.S. government's official web portal to all federal, state and local government web resources and services.